sensor_id;sensor_type;location;lat;lon;timestamp;temperature;humidity
25640;DHT22;13497;48.322;16.204;2024-01-30T00:01:26;2.00;99.90
25640;DHT22;13497;48.322;16.204;2024-01-30T00:03:52;2.00;99.90
25640;DHT22;13497;48.322;16.204;2024-01-30T00:06:21;1.90;99.90
25640;DHT22;13497;48.322;16.204;2024-01-30T00:08:47;2.00;99.90
25640;DHT22;13497;48.322;16.204;2024-01-30T00:11:15;2.10;99.90
25640;DHT22;13497;48.322;16.204;2024-01-30T00:13:41;2.10;99.90
25640;DHT22;13497;48.322;16.204;2024-01-30T00:16:07;2.20;99.90
25640;DHT22;13497;48.322;16.204;2024-01-30T00:18:33;2.20;99.90
25640;DHT22;13497;48.322;16.204;2024-01-30T00:20:59;2.20;99.90
25640;DHT22;13497;48.322;16.204;2024-01-30T00:23:25;2.10;99.90
25640;DHT22;13497;48.322;16.204;2024-01-30T00:25:51;2.20;99.90
25640;DHT22;13497;48.322;16.204;2024-01-30T00:28:16;2.20;99.90
25640;DHT22;13497;48.322;16.204;2024-01-30T00:30:42;2.20;99.90
25640;DHT22;13497;48.322;16.204;2024-01-30T00:33:09;2.10;99.90
25640;DHT22;13497;48.322;16.204;2024-01-30T00:35:34;2.00;99.90
25640;DHT22;13497;48.322;16.204;2024-01-30T00:38:00;1.90;99.90
25640;DHT22;13497;48.322;16.204;2024-01-30T00:40:26;2.00;99.90
25640;DHT22;13497;48.322;16.204;2024-01-30T00:42:51;2.10;99.90
25640;DHT22;13497;48.322;16.204;2024-01-30T00:45:17;2.10;99.90
25640;DHT22;13497;48.322;16.204;2024-01-30T00:47:43;2.10;99.90
25640;DHT22;13497;48.322;16.204;2024-01-30T00:50:09;2.10;99.90
25640;DHT22;13497;48.322;16.204;2024-01-30T00:52:35;2.10;99.90
25640;DHT22;13497;48.322;16.204;2024-01-30T00:55:01;2.10;99.90
25640;DHT22;13497;48.322;16.204;2024-01-30T00:57:28;2.10;99.90
25640;DHT22;13497;48.322;16.204;2024-01-30T00:59:53;2.10;99.90
25640;DHT22;13497;48.322;16.204;2024-01-30T01:02:19;2.10;99.90
25640;DHT22;13497;48.322;16.204;2024-01-30T01:04:45;2.10;99.90
25640;DHT22;13497;48.322;16.204;2024-01-30T01:07:11;2.10;99.90
25640;DHT22;13497;48.322;16.204;2024-01-30T01:09:37;2.00;99.90
25640;DHT22;13497;48.322;16.204;2024-01-30T01:12:03;2.10;99.90
25640;DHT22;13497;48.322;16.204;2024-01-30T01:14:29;2.10;99.90
25640;DHT22;13497;48.322;16.204;2024-01-30T01:16:55;2.10;99.90
25640;DHT22;13497;48.322;16.204;2024-01-30T01:19:21;2.00;99.90
25640;DHT22;13497;48.322;16.204;2024-01-30T01:21:47;1.90;99.90
25640;DHT22;13497;48.322;16.204;2024-01-30T01:24:12;1.90;99.90
25640;DHT22;13497;48.322;16.204;2024-01-30T01:26:38;1.90;99.90
25640;DHT22;13497;48.322;16.204;2024-01-30T01:29:04;1.90;99.90
25640;DHT22;13497;48.322;16.204;2024-01-30T01:31:37;2.00;99.90
25640;DHT22;13497;48.322;16.204;2024-01-30T01:34:09;1.90;99.90
25640;DHT22;13497;48.322;16.204;2024-01-30T01:36:35;1.90;99.90
25640;DHT22;13497;48.322;16.204;2024-01-30T01:39:01;1.80;99.90
25640;DHT22;13497;48.322;16.204;2024-01-30T01:41:31;1.80;99.90
25640;DHT22;13497;48.322;16.204;2024-01-30T01:43:58;1.80;99.90
25640;DHT22;13497;48.322;16.204;2024-01-30T01:46:27;1.70;99.90
25640;DHT22;13497;48.322;16.204;2024-01-30T01:48:53;1.70;99.90
25640;DHT22;13497;48.322;16.204;2024-01-30T01:51:21;1.70;99.90
25640;DHT22;13497;48.322;16.204;2024-01-30T01:53:47;1.80;99.90
25640;DHT22;13497;48.322;16.204;2024-01-30T01:56:13;1.90;99.90
25640;DHT22;13497;48.322;16.204;2024-01-30T01:58:39;1.80;99.90
25640;DHT22;13497;48.322;16.204;2024-01-30T02:01:05;1.80;99.90
25640;DHT22;13497;48.322;16.204;2024-01-30T02:03:31;1.70;99.90
25640;DHT22;13497;48.322;16.204;2024-01-30T02:05:57;1.60;99.90
25640;DHT22;13497;48.322;16.204;2024-01-30T02:08:24;1.60;99.90
25640;DHT22;13497;48.322;16.204;2024-01-30T02:10:50;1.60;99.90
25640;DHT22;13497;48.322;16.204;2024-01-30T02:13:16;1.60;99.90
25640;DHT22;13497;48.322;16.204;2024-01-30T02:15:41;1.60;99.90
25640;DHT22;13497;48.322;16.204;2024-01-30T02:18:07;1.60;99.90
25640;DHT22;13497;48.322;16.204;2024-01-30T02:20:35;1.70;99.90
25640;DHT22;13497;48.322;16.204;2024-01-30T02:23:01;1.70;99.90
25640;DHT22;13497;48.322;16.204;2024-01-30T02:25:35;1.70;99.90
25640;DHT22;13497;48.322;16.204;2024-01-30T02:28:01;1.60;99.90
25640;DHT22;13497;48.322;16.204;2024-01-30T02:30:27;1.60;99.90
25640;DHT22;13497;48.322;16.204;2024-01-30T02:32:52;1.50;99.90
25640;DHT22;13497;48.322;16.204;2024-01-30T02:35:18;1.50;99.90
25640;DHT22;13497;48.322;16.204;2024-01-30T02:37:43;1.50;99.90
25640;DHT22;13497;48.322;16.204;2024-01-30T02:40:09;1.50;99.90
25640;DHT22;13497;48.322;16.204;2024-01-30T02:42:35;1.50;99.90
25640;DHT22;13497;48.322;16.204;2024-01-30T02:45:00;1.50;99.90
25640;DHT22;13497;48.322;16.204;2024-01-30T02:47:26;1.50;99.90
25640;DHT22;13497;48.322;16.204;2024-01-30T02:49:52;1.50;99.90
25640;DHT22;13497;48.322;16.204;2024-01-30T02:52:17;1.40;99.90
25640;DHT22;13497;48.322;16.204;2024-01-30T02:54:44;1.40;99.90
25640;DHT22;13497;48.322;16.204;2024-01-30T02:57:10;1.40;99.90
25640;DHT22;13497;48.322;16.204;2024-01-30T02:59:36;1.50;99.90
25640;DHT22;13497;48.322;16.204;2024-01-30T03:02:01;1.50;99.90
25640;DHT22;13497;48.322;16.204;2024-01-30T03:04:27;1.50;99.90
25640;DHT22;13497;48.322;16.204;2024-01-30T03:06:55;1.50;99.90
25640;DHT22;13497;48.322;16.204;2024-01-30T03:09:21;1.50;99.90
25640;DHT22;13497;48.322;16.204;2024-01-30T03:11:46;1.50;99.90
25640;DHT22;13497;48.322;16.204;2024-01-30T03:14:12;1.40;99.90
25640;DHT22;13497;48.322;16.204;2024-01-30T03:16:38;1.40;99.90
25640;DHT22;13497;48.322;16.204;2024-01-30T03:19:05;1.40;99.90
25640;DHT22;13497;48.322;16.204;2024-01-30T03:21:33;1.40;99.90
25640;DHT22;13497;48.322;16.204;2024-01-30T03:23:59;1.20;99.90
25640;DHT22;13497;48.322;16.204;2024-01-30T03:26:25;1.10;99.90
25640;DHT22;13497;48.322;16.204;2024-01-30T03:28:50;1.10;99.90
25640;DHT22;13497;48.322;16.204;2024-01-30T03:31:16;1.00;99.90
25640;DHT22;13497;48.322;16.204;2024-01-30T03:33:42;1.00;99.90
25640;DHT22;13497;48.322;16.204;2024-01-30T03:36:09;1.00;99.90
25640;DHT22;13497;48.322;16.204;2024-01-30T03:38:35;1.00;99.90
25640;DHT22;13497;48.322;16.204;2024-01-30T03:41:00;1.00;99.90
25640;DHT22;13497;48.322;16.204;2024-01-30T03:43:26;1.10;99.90
25640;DHT22;13497;48.322;16.204;2024-01-30T03:45:52;1.10;99.90
25640;DHT22;13497;48.322;16.204;2024-01-30T03:48:19;0.90;99.90
25640;DHT22;13497;48.322;16.204;2024-01-30T03:50:45;0.90;99.90
25640;DHT22;13497;48.322;16.204;2024-01-30T03:53:11;0.90;99.90
25640;DHT22;13497;48.322;16.204;2024-01-30T03:55:36;0.90;99.90
25640;DHT22;13497;48.322;16.204;2024-01-30T03:58:02;0.80;99.90
25640;DHT22;13497;48.322;16.204;2024-01-30T04:00:28;0.80;99.90
25640;DHT22;13497;48.322;16.204;2024-01-30T04:02:53;0.80;99.90
25640;DHT22;13497;48.322;16.204;2024-01-30T04:05:19;0.90;99.90
25640;DHT22;13497;48.322;16.204;2024-01-30T04:07:45;0.90;99.90
25640;DHT22;13497;48.322;16.204;2024-01-30T04:10:10;0.80;99.90
25640;DHT22;13497;48.322;16.204;2024-01-30T04:12:36;0.70;99.90
25640;DHT22;13497;48.322;16.204;2024-01-30T04:15:02;0.60;99.90
25640;DHT22;13497;48.322;16.204;2024-01-30T04:17:28;0.60;99.90
25640;DHT22;13497;48.322;16.204;2024-01-30T04:19:55;0.50;99.90
25640;DHT22;13497;48.322;16.204;2024-01-30T04:22:20;0.40;99.90
25640;DHT22;13497;48.322;16.204;2024-01-30T04:24:46;0.40;99.90
25640;DHT22;13497;48.322;16.204;2024-01-30T04:27:12;0.30;99.90
25640;DHT22;13497;48.322;16.204;2024-01-30T04:29:38;0.30;99.90
25640;DHT22;13497;48.322;16.204;2024-01-30T04:32:04;0.30;99.90
25640;DHT22;13497;48.322;16.204;2024-01-30T04:34:29;0.50;99.90
25640;DHT22;13497;48.322;16.204;2024-01-30T04:36:55;0.70;99.90
25640;DHT22;13497;48.322;16.204;2024-01-30T04:39:21;0.60;99.90
25640;DHT22;13497;48.322;16.204;2024-01-30T04:41:47;0.60;99.90
25640;DHT22;13497;48.322;16.204;2024-01-30T04:44:14;0.50;99.90
25640;DHT22;13497;48.322;16.204;2024-01-30T04:46:40;0.50;99.90
25640;DHT22;13497;48.322;16.204;2024-01-30T04:49:05;0.40;99.90
25640;DHT22;13497;48.322;16.204;2024-01-30T04:51:33;0.40;99.90
25640;DHT22;13497;48.322;16.204;2024-01-30T04:53:59;0.30;99.90
25640;DHT22;13497;48.322;16.204;2024-01-30T04:56:25;0.20;99.90
25640;DHT22;13497;48.322;16.204;2024-01-30T04:58:50;0.10;99.90
25640;DHT22;13497;48.322;16.204;2024-01-30T05:01:16;0.10;99.90
25640;DHT22;13497;48.322;16.204;2024-01-30T05:03:42;0.10;99.90
25640;DHT22;13497;48.322;16.204;2024-01-30T05:06:08;0.10;99.90
25640;DHT22;13497;48.322;16.204;2024-01-30T05:08:34;0.00;99.90
25640;DHT22;13497;48.322;16.204;2024-01-30T05:11:02;0.30;99.90
25640;DHT22;13497;48.322;16.204;2024-01-30T05:13:30;0.30;99.90
25640;DHT22;13497;48.322;16.204;2024-01-30T05:15:56;0.30;99.90
25640;DHT22;13497;48.322;16.204;2024-01-30T05:18:21;0.20;99.90
25640;DHT22;13497;48.322;16.204;2024-01-30T05:20:47;0.20;99.90
25640;DHT22;13497;48.322;16.204;2024-01-30T05:23:13;0.10;99.90
25640;DHT22;13497;48.322;16.204;2024-01-30T05:25:38;0.10;99.90
25640;DHT22;13497;48.322;16.204;2024-01-30T05:28:04;0.10;99.90
25640;DHT22;13497;48.322;16.204;2024-01-30T05:30:30;0.10;99.90
25640;DHT22;13497;48.322;16.204;2024-01-30T05:32:56;0.10;99.90
25640;DHT22;13497;48.322;16.204;2024-01-30T05:35:21;0.10;99.90
25640;DHT22;13497;48.322;16.204;2024-01-30T05:37:48;0.10;99.90
25640;DHT22;13497;48.322;16.204;2024-01-30T05:40:15;0.00;99.90
25640;DHT22;13497;48.322;16.204;2024-01-30T05:42:41;0.00;99.90
25640;DHT22;13497;48.322;16.204;2024-01-30T05:45:07;0.00;99.90
25640;DHT22;13497;48.322;16.204;2024-01-30T05:47:34;0.00;99.90
25640;DHT22;13497;48.322;16.204;2024-01-30T05:49:59;-0.10;99.90
25640;DHT22;13497;48.322;16.204;2024-01-30T05:52:25;-0.10;99.90
25640;DHT22;13497;48.322;16.204;2024-01-30T05:54:51;-0.10;99.90
25640;DHT22;13497;48.322;16.204;2024-01-30T05:57:17;-0.10;99.90
25640;DHT22;13497;48.322;16.204;2024-01-30T05:59:43;-0.10;99.90
25640;DHT22;13497;48.322;16.204;2024-01-30T06:02:10;-0.20;99.90
25640;DHT22;13497;48.322;16.204;2024-01-30T06:04:36;-0.30;99.90
25640;DHT22;13497;48.322;16.204;2024-01-30T06:07:02;-0.30;99.90
25640;DHT22;13497;48.322;16.204;2024-01-30T06:09:28;-0.40;99.90
25640;DHT22;13497;48.322;16.204;2024-01-30T06:11:54;-0.50;99.90
25640;DHT22;13497;48.322;16.204;2024-01-30T06:14:20;-0.60;99.90
25640;DHT22;13497;48.322;16.204;2024-01-30T06:16:46;-0.50;99.90
25640;DHT22;13497;48.322;16.204;2024-01-30T06:19:11;-0.50;99.90
25640;DHT22;13497;48.322;16.204;2024-01-30T06:21:37;-0.40;99.90
25640;DHT22;13497;48.322;16.204;2024-01-30T06:24:04;-0.50;99.90
25640;DHT22;13497;48.322;16.204;2024-01-30T06:26:30;-0.50;99.90
25640;DHT22;13497;48.322;16.204;2024-01-30T06:28:55;-0.50;99.90
25640;DHT22;13497;48.322;16.204;2024-01-30T06:31:21;-0.60;99.90
25640;DHT22;13497;48.322;16.204;2024-01-30T06:33:50;-0.60;99.90
25640;DHT22;13497;48.322;16.204;2024-01-30T06:36:16;-0.70;99.90
25640;DHT22;13497;48.322;16.204;2024-01-30T06:38:41;-0.80;99.90
25640;DHT22;13497;48.322;16.204;2024-01-30T06:41:07;-0.90;99.90
25640;DHT22;13497;48.322;16.204;2024-01-30T06:43:33;-0.80;99.90
25640;DHT22;13497;48.322;16.204;2024-01-30T06:45:59;-0.80;99.90
25640;DHT22;13497;48.322;16.204;2024-01-30T06:48:25;-0.80;99.90
25640;DHT22;13497;48.322;16.204;2024-01-30T06:50:53;-0.80;99.90
25640;DHT22;13497;48.322;16.204;2024-01-30T06:53:19;-0.90;99.90
25640;DHT22;13497;48.322;16.204;2024-01-30T06:55:45;-0.90;99.90
25640;DHT22;13497;48.322;16.204;2024-01-30T06:58:11;-0.90;99.90
25640;DHT22;13497;48.322;16.204;2024-01-30T07:00:37;-0.90;99.90
25640;DHT22;13497;48.322;16.204;2024-01-30T07:03:03;-0.90;99.90
25640;DHT22;13497;48.322;16.204;2024-01-30T07:05:29;-1.00;99.90
25640;DHT22;13497;48.322;16.204;2024-01-30T07:07:55;-1.00;99.90
25640;DHT22;13497;48.322;16.204;2024-01-30T07:10:21;-1.00;99.90
25640;DHT22;13497;48.322;16.204;2024-01-30T07:12:46;-0.90;99.90
25640;DHT22;13497;48.322;16.204;2024-01-30T07:15:12;-0.90;99.90
25640;DHT22;13497;48.322;16.204;2024-01-30T07:17:42;-0.90;99.90
25640;DHT22;13497;48.322;16.204;2024-01-30T07:20:08;-0.90;99.90
25640;DHT22;13497;48.322;16.204;2024-01-30T07:22:34;-0.90;99.90
25640;DHT22;13497;48.322;16.204;2024-01-30T07:25:00;-0.90;99.90
25640;DHT22;13497;48.322;16.204;2024-01-30T07:27:26;-0.90;99.90
25640;DHT22;13497;48.322;16.204;2024-01-30T07:29:51;-0.90;99.90
25640;DHT22;13497;48.322;16.204;2024-01-30T07:32:17;-1.00;99.90
25640;DHT22;13497;48.322;16.204;2024-01-30T07:34:44;-0.90;99.90
25640;DHT22;13497;48.322;16.204;2024-01-30T07:37:09;-0.90;99.90
25640;DHT22;13497;48.322;16.204;2024-01-30T07:39:36;-0.80;99.90
25640;DHT22;13497;48.322;16.204;2024-01-30T07:42:02;-0.80;99.90
25640;DHT22;13497;48.322;16.204;2024-01-30T07:44:28;-0.70;99.90
25640;DHT22;13497;48.322;16.204;2024-01-30T07:46:53;-0.70;99.90
25640;DHT22;13497;48.322;16.204;2024-01-30T07:49:20;-0.60;99.90
25640;DHT22;13497;48.322;16.204;2024-01-30T07:51:45;-0.60;99.90
25640;DHT22;13497;48.322;16.204;2024-01-30T07:54:14;-0.60;99.90
25640;DHT22;13497;48.322;16.204;2024-01-30T07:56:40;-0.50;99.90
25640;DHT22;13497;48.322;16.204;2024-01-30T07:59:10;-0.40;99.90
25640;DHT22;13497;48.322;16.204;2024-01-30T08:01:37;-0.50;99.90
25640;DHT22;13497;48.322;16.204;2024-01-30T08:04:03;-0.40;99.90
25640;DHT22;13497;48.322;16.204;2024-01-30T08:06:29;-0.10;99.90
25640;DHT22;13497;48.322;16.204;2024-01-30T08:08:54;-0.10;99.90
25640;DHT22;13497;48.322;16.204;2024-01-30T08:11:21;0.00;99.90
25640;DHT22;13497;48.322;16.204;2024-01-30T08:13:52;-0.10;99.90
25640;DHT22;13497;48.322;16.204;2024-01-30T08:16:17;-0.10;99.90
25640;DHT22;13497;48.322;16.204;2024-01-30T08:18:43;0.00;99.90
25640;DHT22;13497;48.322;16.204;2024-01-30T08:21:09;0.00;99.90
25640;DHT22;13497;48.322;16.204;2024-01-30T08:23:35;0.00;99.90
25640;DHT22;13497;48.322;16.204;2024-01-30T08:26:00;0.10;99.90
25640;DHT22;13497;48.322;16.204;2024-01-30T08:28:26;0.10;99.90
25640;DHT22;13497;48.322;16.204;2024-01-30T08:30:52;0.10;99.90
25640;DHT22;13497;48.322;16.204;2024-01-30T08:33:18;0.10;99.90
25640;DHT22;13497;48.322;16.204;2024-01-30T08:35:44;0.10;99.90
25640;DHT22;13497;48.322;16.204;2024-01-30T08:38:09;0.20;99.90
25640;DHT22;13497;48.322;16.204;2024-01-30T08:40:37;0.20;99.90
25640;DHT22;13497;48.322;16.204;2024-01-30T08:43:03;0.30;99.90
25640;DHT22;13497;48.322;16.204;2024-01-30T08:45:29;0.40;99.90
25640;DHT22;13497;48.322;16.204;2024-01-30T08:47:56;0.50;99.90
25640;DHT22;13497;48.322;16.204;2024-01-30T08:50:22;0.50;99.90
25640;DHT22;13497;48.322;16.204;2024-01-30T08:52:48;0.40;99.90
25640;DHT22;13497;48.322;16.204;2024-01-30T08:55:13;0.50;99.90
25640;DHT22;13497;48.322;16.204;2024-01-30T08:57:39;0.60;99.90
25640;DHT22;13497;48.322;16.204;2024-01-30T09:00:07;0.60;99.90
25640;DHT22;13497;48.322;16.204;2024-01-30T09:02:35;0.70;99.90
25640;DHT22;13497;48.322;16.204;2024-01-30T09:05:01;0.70;99.90
25640;DHT22;13497;48.322;16.204;2024-01-30T09:07:27;0.70;99.90
25640;DHT22;13497;48.322;16.204;2024-01-30T09:09:53;0.70;99.90
25640;DHT22;13497;48.322;16.204;2024-01-30T09:12:19;0.70;99.90
25640;DHT22;13497;48.322;16.204;2024-01-30T09:14:44;0.70;99.90
25640;DHT22;13497;48.322;16.204;2024-01-30T09:17:10;0.70;99.90
25640;DHT22;13497;48.322;16.204;2024-01-30T09:19:36;0.80;99.90
25640;DHT22;13497;48.322;16.204;2024-01-30T09:22:01;0.80;99.90
25640;DHT22;13497;48.322;16.204;2024-01-30T09:24:27;0.80;99.90
25640;DHT22;13497;48.322;16.204;2024-01-30T09:26:53;0.70;99.90
25640;DHT22;13497;48.322;16.204;2024-01-30T09:29:19;0.70;99.90
25640;DHT22;13497;48.322;16.204;2024-01-30T09:31:47;0.80;99.90
25640;DHT22;13497;48.322;16.204;2024-01-30T09:34:13;0.90;99.90
25640;DHT22;13497;48.322;16.204;2024-01-30T09:36:39;0.90;99.90
25640;DHT22;13497;48.322;16.204;2024-01-30T09:39:05;0.90;99.90
25640;DHT22;13497;48.322;16.204;2024-01-30T09:41:32;0.80;99.90
25640;DHT22;13497;48.322;16.204;2024-01-30T09:44:00;0.90;99.90
25640;DHT22;13497;48.322;16.204;2024-01-30T09:46:28;0.90;99.90
25640;DHT22;13497;48.322;16.204;2024-01-30T09:48:57;1.00;99.90
25640;DHT22;13497;48.322;16.204;2024-01-30T09:51:24;1.10;99.90
25640;DHT22;13497;48.322;16.204;2024-01-30T09:53:51;1.10;99.90
25640;DHT22;13497;48.322;16.204;2024-01-30T09:56:18;1.20;99.90
25640;DHT22;13497;48.322;16.204;2024-01-30T09:58:44;1.30;99.90
25640;DHT22;13497;48.322;16.204;2024-01-30T10:01:10;1.50;99.90
25640;DHT22;13497;48.322;16.204;2024-01-30T10:03:36;1.60;99.90
25640;DHT22;13497;48.322;16.204;2024-01-30T10:06:01;1.80;99.90
25640;DHT22;13497;48.322;16.204;2024-01-30T10:08:28;2.00;99.90
25640;DHT22;13497;48.322;16.204;2024-01-30T10:10:55;2.10;99.90
25640;DHT22;13497;48.322;16.204;2024-01-30T10:13:20;2.00;99.90
25640;DHT22;13497;48.322;16.204;2024-01-30T10:15:47;2.00;99.90
25640;DHT22;13497;48.322;16.204;2024-01-30T10:18:13;2.10;99.90
25640;DHT22;13497;48.322;16.204;2024-01-30T10:20:39;2.20;99.90
25640;DHT22;13497;48.322;16.204;2024-01-30T10:23:04;2.30;99.90
25640;DHT22;13497;48.322;16.204;2024-01-30T10:25:33;2.30;99.90
25640;DHT22;13497;48.322;16.204;2024-01-30T10:27:59;2.30;99.90
25640;DHT22;13497;48.322;16.204;2024-01-30T10:30:26;2.30;99.90
25640;DHT22;13497;48.322;16.204;2024-01-30T10:32:52;2.30;99.90
25640;DHT22;13497;48.322;16.204;2024-01-30T10:35:17;2.30;99.90
25640;DHT22;13497;48.322;16.204;2024-01-30T10:37:44;2.40;99.90
25640;DHT22;13497;48.322;16.204;2024-01-30T10:40:13;2.30;99.90
25640;DHT22;13497;48.322;16.204;2024-01-30T10:42:43;2.30;99.90
25640;DHT22;13497;48.322;16.204;2024-01-30T10:45:13;2.30;99.90
25640;DHT22;13497;48.322;16.204;2024-01-30T10:47:47;2.40;99.90
25640;DHT22;13497;48.322;16.204;2024-01-30T10:50:14;2.40;99.90
25640;DHT22;13497;48.322;16.204;2024-01-30T10:52:41;2.60;99.90
25640;DHT22;13497;48.322;16.204;2024-01-30T10:55:08;2.80;99.90
25640;DHT22;13497;48.322;16.204;2024-01-30T10:57:37;2.90;99.90
25640;DHT22;13497;48.322;16.204;2024-01-30T11:00:11;2.90;99.90
25640;DHT22;13497;48.322;16.204;2024-01-30T11:02:44;3.10;99.90
25640;DHT22;13497;48.322;16.204;2024-01-30T11:05:10;3.20;99.90
25640;DHT22;13497;48.322;16.204;2024-01-30T11:07:39;3.30;99.90
25640;DHT22;13497;48.322;16.204;2024-01-30T11:10:05;3.20;99.90
25640;DHT22;13497;48.322;16.204;2024-01-30T11:12:38;3.20;99.90
25640;DHT22;13497;48.322;16.204;2024-01-30T11:15:10;3.10;99.90
25640;DHT22;13497;48.322;16.204;2024-01-30T11:22:46;2.80;99.90
25640;DHT22;13497;48.322;16.204;2024-01-30T11:25:14;2.70;99.90
25640;DHT22;13497;48.322;16.204;2024-01-30T11:27:41;2.60;99.90
25640;DHT22;13497;48.322;16.204;2024-01-30T11:30:08;2.50;99.90
25640;DHT22;13497;48.322;16.204;2024-01-30T11:32:33;2.60;99.90
25640;DHT22;13497;48.322;16.204;2024-01-30T11:34:59;2.70;99.90
25640;DHT22;13497;48.322;16.204;2024-01-30T11:37:28;2.60;99.90
25640;DHT22;13497;48.322;16.204;2024-01-30T11:39:56;2.80;99.90
25640;DHT22;13497;48.322;16.204;2024-01-30T11:42:24;2.90;99.90
25640;DHT22;13497;48.322;16.204;2024-01-30T11:44:52;3.00;99.90
25640;DHT22;13497;48.322;16.204;2024-01-30T11:47:18;3.10;99.90
25640;DHT22;13497;48.322;16.204;2024-01-30T11:49:44;3.10;99.90
25640;DHT22;13497;48.322;16.204;2024-01-30T11:52:10;3.20;99.90
25640;DHT22;13497;48.322;16.204;2024-01-30T11:54:35;3.30;99.90
25640;DHT22;13497;48.322;16.204;2024-01-30T11:57:04;3.40;99.90
25640;DHT22;13497;48.322;16.204;2024-01-30T11:59:30;3.40;99.90
25640;DHT22;13497;48.322;16.204;2024-01-30T12:01:56;3.30;99.90
25640;DHT22;13497;48.322;16.204;2024-01-30T12:04:22;3.00;99.90
25640;DHT22;13497;48.322;16.204;2024-01-30T12:06:51;2.80;99.90
25640;DHT22;13497;48.322;16.204;2024-01-30T12:09:16;2.70;99.90
25640;DHT22;13497;48.322;16.204;2024-01-30T12:11:46;2.60;99.90
25640;DHT22;13497;48.322;16.204;2024-01-30T12:14:12;2.60;99.90
25640;DHT22;13497;48.322;16.204;2024-01-30T12:16:38;2.50;99.90
25640;DHT22;13497;48.322;16.204;2024-01-30T12:19:04;2.50;99.90
25640;DHT22;13497;48.322;16.204;2024-01-30T12:21:30;2.60;99.90
25640;DHT22;13497;48.322;16.204;2024-01-30T12:23:59;2.60;99.90
25640;DHT22;13497;48.322;16.204;2024-01-30T12:26:25;2.50;99.90
25640;DHT22;13497;48.322;16.204;2024-01-30T12:28:54;2.40;99.90
25640;DHT22;13497;48.322;16.204;2024-01-30T12:31:32;2.40;99.90
25640;DHT22;13497;48.322;16.204;2024-01-30T12:34:00;2.40;99.90
25640;DHT22;13497;48.322;16.204;2024-01-30T12:36:26;2.40;99.90
25640;DHT22;13497;48.322;16.204;2024-01-30T12:38:51;2.40;99.90
25640;DHT22;13497;48.322;16.204;2024-01-30T12:41:17;2.50;99.90
25640;DHT22;13497;48.322;16.204;2024-01-30T12:43:44;2.50;99.90
25640;DHT22;13497;48.322;16.204;2024-01-30T12:46:10;2.60;99.90
25640;DHT22;13497;48.322;16.204;2024-01-30T12:48:35;2.60;99.90
25640;DHT22;13497;48.322;16.204;2024-01-30T12:51:01;2.80;99.90
25640;DHT22;13497;48.322;16.204;2024-01-30T12:53:27;2.80;99.90
25640;DHT22;13497;48.322;16.204;2024-01-30T12:55:52;2.70;99.90
25640;DHT22;13497;48.322;16.204;2024-01-30T12:58:20;2.70;99.90
25640;DHT22;13497;48.322;16.204;2024-01-30T13:00:46;2.70;99.90
25640;DHT22;13497;48.322;16.204;2024-01-30T13:03:12;2.70;99.90
25640;DHT22;13497;48.322;16.204;2024-01-30T13:05:38;2.60;99.90
25640;DHT22;13497;48.322;16.204;2024-01-30T13:08:04;2.50;99.90
25640;DHT22;13497;48.322;16.204;2024-01-30T13:10:30;2.50;99.90
25640;DHT22;13497;48.322;16.204;2024-01-30T13:12:55;2.50;99.90
25640;DHT22;13497;48.322;16.204;2024-01-30T13:15:21;2.40;99.90
25640;DHT22;13497;48.322;16.204;2024-01-30T13:17:49;2.50;99.90
25640;DHT22;13497;48.322;16.204;2024-01-30T13:20:15;2.40;99.90
25640;DHT22;13497;48.322;16.204;2024-01-30T13:22:46;2.40;99.90
25640;DHT22;13497;48.322;16.204;2024-01-30T13:25:12;2.50;99.90
25640;DHT22;13497;48.322;16.204;2024-01-30T13:27:38;2.50;99.90
25640;DHT22;13497;48.322;16.204;2024-01-30T13:30:04;2.60;99.90
25640;DHT22;13497;48.322;16.204;2024-01-30T13:32:30;2.60;99.90
25640;DHT22;13497;48.322;16.204;2024-01-30T13:34:55;2.60;99.90
25640;DHT22;13497;48.322;16.204;2024-01-30T13:37:22;2.60;99.90
25640;DHT22;13497;48.322;16.204;2024-01-30T13:39:48;2.60;99.90
25640;DHT22;13497;48.322;16.204;2024-01-30T13:42:13;2.70;99.90
25640;DHT22;13497;48.322;16.204;2024-01-30T13:44:39;2.60;99.90
25640;DHT22;13497;48.322;16.204;2024-01-30T13:47:05;2.60;99.90
25640;DHT22;13497;48.322;16.204;2024-01-30T13:49:31;2.50;99.90
25640;DHT22;13497;48.322;16.204;2024-01-30T13:51:56;2.50;99.90
25640;DHT22;13497;48.322;16.204;2024-01-30T13:54:23;2.40;99.90
25640;DHT22;13497;48.322;16.204;2024-01-30T13:56:52;2.40;99.90
25640;DHT22;13497;48.322;16.204;2024-01-30T13:59:17;2.40;99.90
25640;DHT22;13497;48.322;16.204;2024-01-30T14:01:48;2.40;99.90
25640;DHT22;13497;48.322;16.204;2024-01-30T14:04:14;2.60;99.90
25640;DHT22;13497;48.322;16.204;2024-01-30T14:06:40;2.60;99.90
25640;DHT22;13497;48.322;16.204;2024-01-30T14:09:06;2.60;99.90
25640;DHT22;13497;48.322;16.204;2024-01-30T14:11:31;2.50;99.90
25640;DHT22;13497;48.322;16.204;2024-01-30T14:13:57;2.50;99.90
25640;DHT22;13497;48.322;16.204;2024-01-30T14:16:23;2.50;99.90
25640;DHT22;13497;48.322;16.204;2024-01-30T14:18:50;2.50;99.90
25640;DHT22;13497;48.322;16.204;2024-01-30T14:21:16;2.40;99.90
25640;DHT22;13497;48.322;16.204;2024-01-30T14:23:41;2.40;99.90
25640;DHT22;13497;48.322;16.204;2024-01-30T14:26:07;2.50;99.90
25640;DHT22;13497;48.322;16.204;2024-01-30T14:28:33;2.40;99.90
25640;DHT22;13497;48.322;16.204;2024-01-30T14:30:59;2.40;99.90
25640;DHT22;13497;48.322;16.204;2024-01-30T14:33:25;2.40;99.90
25640;DHT22;13497;48.322;16.204;2024-01-30T14:35:51;2.40;99.90
25640;DHT22;13497;48.322;16.204;2024-01-30T14:38:17;2.50;99.90
25640;DHT22;13497;48.322;16.204;2024-01-30T14:40:42;2.40;99.90
25640;DHT22;13497;48.322;16.204;2024-01-30T14:43:08;2.40;99.90
25640;DHT22;13497;48.322;16.204;2024-01-30T14:45:33;2.30;99.90
25640;DHT22;13497;48.322;16.204;2024-01-30T14:47:59;2.30;99.90
25640;DHT22;13497;48.322;16.204;2024-01-30T14:50:25;2.20;99.90
25640;DHT22;13497;48.322;16.204;2024-01-30T14:52:53;2.20;99.90
25640;DHT22;13497;48.322;16.204;2024-01-30T14:55:19;2.20;99.90
25640;DHT22;13497;48.322;16.204;2024-01-30T14:57:45;2.10;99.90
25640;DHT22;13497;48.322;16.204;2024-01-30T15:00:12;2.20;99.90
25640;DHT22;13497;48.322;16.204;2024-01-30T15:02:37;2.10;99.90
25640;DHT22;13497;48.322;16.204;2024-01-30T15:05:03;2.10;99.90
25640;DHT22;13497;48.322;16.204;2024-01-30T15:07:29;2.10;99.90
25640;DHT22;13497;48.322;16.204;2024-01-30T15:09:55;2.00;99.90
25640;DHT22;13497;48.322;16.204;2024-01-30T15:12:21;2.00;99.90
25640;DHT22;13497;48.322;16.204;2024-01-30T15:14:46;1.90;99.90
25640;DHT22;13497;48.322;16.204;2024-01-30T15:17:18;1.80;99.90
25640;DHT22;13497;48.322;16.204;2024-01-30T15:19:46;1.80;99.90
25640;DHT22;13497;48.322;16.204;2024-01-30T15:22:13;1.80;99.90
25640;DHT22;13497;48.322;16.204;2024-01-30T15:24:38;1.60;99.90
25640;DHT22;13497;48.322;16.204;2024-01-30T15:27:04;1.70;99.90